sensor_id;sensor_type;location;lat;lon;timestamp;pressure;altitude;pressure_sealevel;temperature;humidity
58295;BME280;45705;55.592;37.460;2023-08-08T00:01:59;98343.31;;;21.55;89.87
58295;BME280;45705;55.592;37.460;2023-08-08T00:04:25;98337.00;;;21.54;90.00
58295;BME280;45705;55.592;37.460;2023-08-08T00:06:51;98337.00;;;21.51;89.96
58295;BME280;45705;55.592;37.460;2023-08-08T00:09:16;98337.00;;;21.54;89.96
58295;BME280;45705;55.592;37.460;2023-08-08T00:11:42;98325.53;;;21.52;89.84
58295;BME280;45705;55.592;37.460;2023-08-08T00:14:08;98316.88;;;21.50;89.88
58295;BME280;45705;55.592;37.460;2023-08-08T00:16:34;98310.16;;;21.44;91.27
58295;BME280;45705;55.592;37.460;2023-08-08T00:19:00;98318.03;;;21.42;91.35
58295;BME280;45705;55.592;37.460;2023-08-08T00:21:26;98301.44;;;21.42;93.33
58295;BME280;45705;55.592;37.460;2023-08-08T00:23:51;98303.06;;;21.36;92.31
58295;BME280;45705;55.592;37.460;2023-08-08T00:26:17;98303.88;;;21.33;92.99
58295;BME280;45705;55.592;37.460;2023-08-08T00:28:43;98285.69;;;21.32;92.67
58295;BME280;45705;55.592;37.460;2023-08-08T00:31:08;98289.66;;;21.31;92.39
58295;BME280;45705;55.592;37.460;2023-08-08T00:33:34;98287.31;;;21.26;93.87
58295;BME280;45705;55.592;37.460;2023-08-08T00:36:00;98283.75;;;21.25;93.91
58295;BME280;45705;55.592;37.460;2023-08-08T00:38:27;98281.78;;;21.18;94.48
58295;BME280;45705;55.592;37.460;2023-08-08T00:40:53;98261.28;;;21.09;95.88
58295;BME280;45705;55.592;37.460;2023-08-08T00:43:19;98252.63;;;21.07;94.62
58295;BME280;45705;55.592;37.460;2023-08-08T00:45:45;98256.22;;;21.00;95.72
58295;BME280;45705;55.592;37.460;2023-08-08T00:48:11;98257.38;;;20.99;97.00
58295;BME280;45705;55.592;37.460;2023-08-08T00:50:42;98273.97;;;20.92;95.78
58295;BME280;45705;55.592;37.460;2023-08-08T00:53:09;98267.66;;;20.95;95.62
58295;BME280;45705;55.592;37.460;2023-08-08T00:55:35;98280.69;;;20.98;94.99
58295;BME280;45705;55.592;37.460;2023-08-08T00:58:03;98282.25;;;20.95;94.76
58295;BME280;45705;55.592;37.460;2023-08-08T01:00:30;98285.03;;;20.99;93.09
58295;BME280;45705;55.592;37.460;2023-08-08T01:02:56;98280.25;;;21.03;92.32
58295;BME280;45705;55.592;37.460;2023-08-08T01:05:22;98257.38;;;21.06;91.91
58295;BME280;45705;55.592;37.460;2023-08-08T01:07:59;98269.97;;;21.07;92.37
58295;BME280;45705;55.592;37.460;2023-08-08T01:10:33;98264.88;;;21.02;91.91
58295;BME280;45705;55.592;37.460;2023-08-08T01:13:08;98266.06;;;21.01;92.60
58295;BME280;45705;55.592;37.460;2023-08-08T01:15:36;98261.34;;;20.98;92.68
58295;BME280;45705;55.592;37.460;2023-08-08T01:18:04;98252.28;;;20.94;92.92
58295;BME280;45705;55.592;37.460;2023-08-08T01:20:32;98253.06;;;20.98;92.65
58295;BME280;45705;55.592;37.460;2023-08-08T01:25:40;98264.91;;;20.95;93.02
58295;BME280;45705;55.592;37.460;2023-08-08T01:28:07;98255.06;;;20.94;93.32
58295;BME280;45705;55.592;37.460;2023-08-08T01:30:33;98259.81;;;20.75;94.47
58295;BME280;45705;55.592;37.460;2023-08-08T01:33:01;98260.59;;;20.87;93.72
58295;BME280;45705;55.592;37.460;2023-08-08T01:35:37;98258.22;;;20.78;94.18
58295;BME280;45705;55.592;37.460;2023-08-08T01:40:36;98267.72;;;20.77;95.43
58295;BME280;45705;55.592;37.460;2023-08-08T01:43:04;98255.47;;;20.74;95.55
58295;BME280;45705;55.592;37.460;2023-08-08T01:45:30;98251.16;;;20.73;95.74
58295;BME280;45705;55.592;37.460;2023-08-08T01:47:56;98247.22;;;20.71;95.92
58295;BME280;45705;55.592;37.460;2023-08-08T01:50:22;98258.66;;;20.69;97.27
58295;BME280;45705;55.592;37.460;2023-08-08T01:52:48;98270.09;;;20.64;97.62
58295;BME280;45705;55.592;37.460;2023-08-08T01:55:14;98262.22;;;20.62;97.45
58295;BME280;45705;55.592;37.460;2023-08-08T01:57:39;98274.84;;;20.60;98.37
58295;BME280;45705;55.592;37.460;2023-08-08T02:00:06;98274.06;;;20.63;98.12
58295;BME280;45705;55.592;37.460;2023-08-08T02:02:41;98264.16;;;20.55;98.02
58295;BME280;45705;55.592;37.460;2023-08-08T02:05:07;98269.31;;;20.60;97.63
58295;BME280;45705;55.592;37.460;2023-08-08T02:07:33;98264.97;;;20.59;97.71
58295;BME280;45705;55.592;37.460;2023-08-08T02:10:00;98274.84;;;20.60;98.09
58295;BME280;45705;55.592;37.460;2023-08-08T02:12:26;98269.72;;;20.62;97.83
58295;BME280;45705;55.592;37.460;2023-08-08T02:14:52;98267.31;;;20.57;97.66
58295;BME280;45705;55.592;37.460;2023-08-08T02:17:18;98271.66;;;20.58;98.38
58295;BME280;45705;55.592;37.460;2023-08-08T02:19:44;98268.50;;;20.49;98.36
58295;BME280;45705;55.592;37.460;2023-08-08T02:22:10;98270.88;;;20.50;99.42
58295;BME280;45705;55.592;37.460;2023-08-08T02:24:36;98270.09;;;20.46;99.46
58295;BME280;45705;55.592;37.460;2023-08-08T02:27:02;98271.69;;;20.43;99.93
58295;BME280;45705;55.592;37.460;2023-08-08T02:29:29;98275.66;;;20.32;100.00
58295;BME280;45705;55.592;37.460;2023-08-08T02:31:54;98264.19;;;20.37;100.00
58295;BME280;45705;55.592;37.460;2023-08-08T02:34:20;98271.28;;;20.34;100.00
58295;BME280;45705;55.592;37.460;2023-08-08T02:36:46;98278.78;;;20.37;100.00
58295;BME280;45705;55.592;37.460;2023-08-08T02:39:12;98272.50;;;20.26;100.00
58295;BME280;45705;55.592;37.460;2023-08-08T02:41:37;98268.53;;;20.13;100.00
58295;BME280;45705;55.592;37.460;2023-08-08T02:44:03;98273.66;;;20.21;100.00
58295;BME280;45705;55.592;37.460;2023-08-08T02:46:29;98268.94;;;20.18;100.00
58295;BME280;45705;55.592;37.460;2023-08-08T02:48:55;98269.72;;;20.12;100.00
58295;BME280;45705;55.592;37.460;2023-08-08T02:51:21;98285.88;;;20.10;100.00
58295;BME280;45705;55.592;37.460;2023-08-08T02:53:47;98274.03;;;20.20;100.00
58295;BME280;45705;55.592;37.460;2023-08-08T02:56:12;98279.59;;;20.13;100.00
58295;BME280;45705;55.592;37.460;2023-08-08T02:58:41;98280.38;;;20.13;100.00
58295;BME280;45705;55.592;37.460;2023-08-08T03:01:07;98278.78;;;20.16;100.00
58295;BME280;45705;55.592;37.460;2023-08-08T03:03:33;98278.78;;;20.09;100.00
58295;BME280;45705;55.592;37.460;2023-08-08T03:06:00;98281.53;;;20.12;100.00
58295;BME280;45705;55.592;37.460;2023-08-08T03:08:27;98284.69;;;20.18;100.00
58295;BME280;45705;55.592;37.460;2023-08-08T03:10:54;98286.69;;;20.21;100.00
58295;BME280;45705;55.592;37.460;2023-08-08T03:13:20;98287.06;;;20.23;100.00
58295;BME280;45705;55.592;37.460;2023-08-08T03:15:48;98290.22;;;20.21;100.00
58295;BME280;45705;55.592;37.460;2023-08-08T03:18:13;98275.63;;;20.35;100.00
58295;BME280;45705;55.592;37.460;2023-08-08T03:20:40;98283.53;;;20.40;100.00
58295;BME280;45705;55.592;37.460;2023-08-08T03:23:07;98290.22;;;20.54;100.00
58295;BME280;45705;55.592;37.460;2023-08-08T03:25:33;98288.22;;;20.51;100.00
58295;BME280;45705;55.592;37.460;2023-08-08T03:28:00;98285.47;;;20.47;100.00
58295;BME280;45705;55.592;37.460;2023-08-08T03:30:26;98290.63;;;20.63;99.86
58295;BME280;45705;55.592;37.460;2023-08-08T03:32:52;98291.38;;;20.56;100.00
58295;BME280;45705;55.592;37.460;2023-08-08T03:35:18;98283.50;;;20.55;100.00
58295;BME280;45705;55.592;37.460;2023-08-08T03:37:44;98289.00;;;20.58;100.00
58295;BME280;45705;55.592;37.460;2023-08-08T03:40:11;98291.00;;;20.47;100.00
58295;BME280;45705;55.592;37.460;2023-08-08T03:42:39;98296.53;;;20.43;100.00
58295;BME280;45705;55.592;37.460;2023-08-08T03:45:05;98289.81;;;20.48;100.00
58295;BME280;45705;55.592;37.460;2023-08-08T03:47:32;98293.78;;;20.61;100.00
58295;BME280;45705;55.592;37.460;2023-08-08T03:49:58;98302.06;;;20.65;100.00
58295;BME280;45705;55.592;37.460;2023-08-08T03:52:29;98293.38;;;20.45;100.00
58295;BME280;45705;55.592;37.460;2023-08-08T03:54:56;98313.50;;;20.45;100.00
58295;BME280;45705;55.592;37.460;2023-08-08T03:57:22;98311.13;;;20.48;100.00
58295;BME280;45705;55.592;37.460;2023-08-08T03:59:48;98309.16;;;20.41;100.00
58295;BME280;45705;55.592;37.460;2023-08-08T04:02:14;98312.31;;;20.32;100.00
58295;BME280;45705;55.592;37.460;2023-08-08T04:04:41;98322.94;;;20.41;100.00
58295;BME280;45705;55.592;37.460;2023-08-08T04:07:06;98314.28;;;20.28;100.00
58295;BME280;45705;55.592;37.460;2023-08-08T04:09:32;98319.00;;;20.35;100.00
58295;BME280;45705;55.592;37.460;2023-08-08T04:11:58;98311.91;;;20.41;100.00
58295;BME280;45705;55.592;37.460;2023-08-08T04:14:24;98313.09;;;20.36;100.00
58295;BME280;45705;55.592;37.460;2023-08-08T04:16:50;98307.19;;;20.34;100.00
58295;BME280;45705;55.592;37.460;2023-08-08T04:19:16;98315.06;;;20.32;100.00
58295;BME280;45705;55.592;37.460;2023-08-08T04:21:41;98318.25;;;20.41;100.00
58295;BME280;45705;55.592;37.460;2023-08-08T04:24:07;98315.47;;;20.34;100.00
58295;BME280;45705;55.592;37.460;2023-08-08T04:26:33;98316.66;;;20.40;100.00
58295;BME280;45705;55.592;37.460;2023-08-08T04:28:59;98319.81;;;20.32;100.00
58295;BME280;45705;55.592;37.460;2023-08-08T04:31:25;98321.38;;;20.29;100.00
58295;BME280;45705;55.592;37.460;2023-08-08T04:33:52;98307.97;;;20.38;100.00
58295;BME280;45705;55.592;37.460;2023-08-08T04:36:23;98318.22;;;20.34;100.00
58295;BME280;45705;55.592;37.460;2023-08-08T04:38:49;98322.19;;;20.48;100.00
58295;BME280;45705;55.592;37.460;2023-08-08T04:41:15;98319.41;;;20.40;100.00
58295;BME280;45705;55.592;37.460;2023-08-08T04:43:40;98319.41;;;20.40;100.00
58295;BME280;45705;55.592;37.460;2023-08-08T04:46:06;98324.53;;;20.38;100.00
58295;BME280;45705;55.592;37.460;2023-08-08T04:48:32;98315.47;;;20.49;100.00
58295;BME280;45705;55.592;37.460;2023-08-08T04:50:58;98311.91;;;20.55;100.00
58295;BME280;45705;55.592;37.460;2023-08-08T04:53:24;98323.75;;;20.56;100.00
58295;BME280;45705;55.592;37.460;2023-08-08T04:55:49;98321.78;;;20.60;100.00
58295;BME280;45705;55.592;37.460;2023-08-08T04:58:15;98326.94;;;20.65;100.00
58295;BME280;45705;55.592;37.460;2023-08-08T05:00:41;98339.50;;;20.95;100.00
58295;BME280;45705;55.592;37.460;2023-08-08T05:03:06;98328.06;;;21.03;100.00
58295;BME280;45705;55.592;37.460;2023-08-08T05:05:32;98331.66;;;20.82;100.00
58295;BME280;45705;55.592;37.460;2023-08-08T05:07:58;98326.91;;;20.87;100.00
58295;BME280;45705;55.592;37.460;2023-08-08T05:10:24;98327.72;;;20.76;100.00
58295;BME280;45705;55.592;37.460;2023-08-08T05:12:49;98329.94;;;21.24;100.00
58295;BME280;45705;55.592;37.460;2023-08-08T05:15:15;98335.50;;;22.06;92.85
58295;BME280;45705;55.592;37.460;2023-08-08T05:17:41;98339.63;;;22.42;87.56
58295;BME280;45705;55.592;37.460;2023-08-08T05:20:07;98341.94;;;22.96;82.95
58295;BME280;45705;55.592;37.460;2023-08-08T05:22:34;98326.16;;;23.93;77.61
58295;BME280;45705;55.592;37.460;2023-08-08T05:25:00;98322.69;;;23.54;79.06
58295;BME280;45705;55.592;37.460;2023-08-08T05:27:26;98333.44;;;23.83;78.21
58295;BME280;45705;55.592;37.460;2023-08-08T05:29:51;98335.16;;;23.70;77.04
58295;BME280;45705;55.592;37.460;2023-08-08T05:32:17;98332.81;;;24.26;75.19
58295;BME280;45705;55.592;37.460;2023-08-08T05:34:43;98334.16;;;24.42;72.74
58295;BME280;45705;55.592;37.460;2023-08-08T05:37:09;98335.03;;;24.86;70.11
58295;BME280;45705;55.592;37.460;2023-08-08T05:39:34;98333.13;;;24.32;71.01
58295;BME280;45705;55.592;37.460;2023-08-08T05:42:00;98324.41;;;24.57;70.28
58295;BME280;45705;55.592;37.460;2023-08-08T05:44:26;98337.53;;;24.29;71.81
58295;BME280;45705;55.592;37.460;2023-08-08T05:46:52;98342.53;;;24.38;72.48
58295;BME280;45705;55.592;37.460;2023-08-08T05:49:18;98328.97;;;24.16;73.95
58295;BME280;45705;55.592;37.460;2023-08-08T05:51:43;98331.94;;;23.75;74.97
58295;BME280;45705;55.592;37.460;2023-08-08T05:54:09;98336.59;;;23.85;75.26
58295;BME280;45705;55.592;37.460;2023-08-08T05:56:37;98340.69;;;23.05;80.41
58295;BME280;45705;55.592;37.460;2023-08-08T05:59:03;98348.34;;;23.28;80.31
58295;BME280;45705;55.592;37.460;2023-08-08T06:01:30;98347.47;;;23.38;79.50
58295;BME280;45705;55.592;37.460;2023-08-08T06:03:57;98342.66;;;23.42;79.29
58295;BME280;45705;55.592;37.460;2023-08-08T06:06:26;98340.25;;;23.44;80.05
58295;BME280;45705;55.592;37.460;2023-08-08T06:08:53;98341.19;;;23.65;77.64
58295;BME280;45705;55.592;37.460;2023-08-08T06:11:19;98346.91;;;23.85;75.69
58295;BME280;45705;55.592;37.460;2023-08-08T06:13:45;98339.59;;;24.49;73.20
58295;BME280;45705;55.592;37.460;2023-08-08T06:16:11;98338.56;;;24.66;70.70
58295;BME280;45705;55.592;37.460;2023-08-08T06:18:37;98335.75;;;24.90;68.63
58295;BME280;45705;55.592;37.460;2023-08-08T06:21:03;98337.81;;;24.62;71.26
58295;BME280;45705;55.592;37.460;2023-08-08T06:23:29;98334.53;;;24.67;70.08
58295;BME280;45705;55.592;37.460;2023-08-08T06:25:55;98342.81;;;24.20;73.30
58295;BME280;45705;55.592;37.460;2023-08-08T06:28:21;98346.16;;;24.08;74.12
58295;BME280;45705;55.592;37.460;2023-08-08T06:30:46;98344.00;;;24.19;72.69
58295;BME280;45705;55.592;37.460;2023-08-08T06:33:12;98331.63;;;25.18;68.59
58295;BME280;45705;55.592;37.460;2023-08-08T06:35:38;98336.41;;;25.98;64.31
58295;BME280;45705;55.592;37.460;2023-08-08T06:38:05;98343.97;;;26.66;61.01
58295;BME280;45705;55.592;37.460;2023-08-08T06:40:31;98343.75;;;26.57;61.04
58295;BME280;45705;55.592;37.460;2023-08-08T06:42:57;98344.91;;;26.27;63.09
58295;BME280;45705;55.592;37.460;2023-08-08T06:45:24;98350.22;;;26.21;62.16
58295;BME280;45705;55.592;37.460;2023-08-08T06:47:50;98343.53;;;25.42;65.35
58295;BME280;45705;55.592;37.460;2023-08-08T06:50:16;98335.56;;;25.81;65.60
58295;BME280;45705;55.592;37.460;2023-08-08T06:52:42;98347.97;;;26.65;61.09
58295;BME280;45705;55.592;37.460;2023-08-08T06:55:09;98349.69;;;26.26;62.67
58295;BME280;45705;55.592;37.460;2023-08-08T06:57:35;98350.38;;;27.55;56.71
58295;BME280;45705;55.592;37.460;2023-08-08T07:00:02;98353.13;;;27.71;55.86
58295;BME280;45705;55.592;37.460;2023-08-08T07:02:31;98348.38;;;28.10;54.90
58295;BME280;45705;55.592;37.460;2023-08-08T07:04:58;98362.69;;;28.12;54.85
58295;BME280;45705;55.592;37.460;2023-08-08T07:07:24;98369.91;;;26.96;58.06
58295;BME280;45705;55.592;37.460;2023-08-08T07:09:50;98379.66;;;26.39;61.85
58295;BME280;45705;55.592;37.460;2023-08-08T07:12:17;98363.13;;;26.64;62.28
58295;BME280;45705;55.592;37.460;2023-08-08T07:14:43;98358.91;;;27.64;56.92
58295;BME280;45705;55.592;37.460;2023-08-08T07:17:09;98366.16;;;27.61;55.93
58295;BME280;45705;55.592;37.460;2023-08-08T07:19:36;98369.69;;;27.91;55.41
58295;BME280;45705;55.592;37.460;2023-08-08T07:22:02;98366.56;;;27.89;57.36
58295;BME280;45705;55.592;37.460;2023-08-08T07:24:28;98362.34;;;28.10;55.15
58295;BME280;45705;55.592;37.460;2023-08-08T07:26:56;98347.78;;;29.80;50.92
58295;BME280;45705;55.592;37.460;2023-08-08T07:29:22;98355.03;;;28.77;52.31
58295;BME280;45705;55.592;37.460;2023-08-08T07:31:48;98349.50;;;28.25;54.67
58295;BME280;45705;55.592;37.460;2023-08-08T07:34:13;98359.47;;;28.52;53.72
58295;BME280;45705;55.592;37.460;2023-08-08T07:36:39;98360.69;;;28.51;53.94
58295;BME280;45705;55.592;37.460;2023-08-08T07:39:05;98362.81;;;27.96;55.31
58295;BME280;45705;55.592;37.460;2023-08-08T07:41:31;98378.31;;;27.55;57.65
58295;BME280;45705;55.592;37.460;2023-08-08T07:43:57;98373.63;;;27.52;58.10
58295;BME280;45705;55.592;37.460;2023-08-08T07:46:23;98376.81;;;27.21;58.74
58295;BME280;45705;55.592;37.460;2023-08-08T07:48:49;98386.13;;;27.01;60.28
58295;BME280;45705;55.592;37.460;2023-08-08T07:51:15;98384.84;;;27.19;60.29
58295;BME280;45705;55.592;37.460;2023-08-08T07:53:40;98391.84;;;27.10;61.17
58295;BME280;45705;55.592;37.460;2023-08-08T07:56:06;98386.28;;;26.94;61.37
58295;BME280;45705;55.592;37.460;2023-08-08T07:58:32;98384.81;;;26.89;61.94
58295;BME280;45705;55.592;37.460;2023-08-08T08:00:58;98389.75;;;26.98;61.93
58295;BME280;45705;55.592;37.460;2023-08-08T08:03:26;98388.06;;;26.71;64.27
58295;BME280;45705;55.592;37.460;2023-08-08T08:05:53;98384.84;;;27.19;63.55
58295;BME280;45705;55.592;37.460;2023-08-08T08:08:19;98386.38;;;27.07;62.72
58295;BME280;45705;55.592;37.460;2023-08-08T08:10:48;98374.94;;;26.36;64.61
58295;BME280;45705;55.592;37.460;2023-08-08T08:13:16;98383.56;;;27.07;62.59
58295;BME280;45705;55.592;37.460;2023-08-08T08:15:43;98400.16;;;26.48;64.80
58295;BME280;45705;55.592;37.460;2023-08-08T08:18:09;98389.19;;;26.74;64.43
58295;BME280;45705;55.592;37.460;2023-08-08T08:20:36;98389.44;;;26.63;65.76
58295;BME280;45705;55.592;37.460;2023-08-08T08:23:02;98387.88;;;26.95;62.94
58295;BME280;45705;55.592;37.460;2023-08-08T08:25:28;98386.16;;;27.30;61.22
58295;BME280;45705;55.592;37.460;2023-08-08T08:27:54;98390.63;;;27.57;60.04
58295;BME280;45705;55.592;37.460;2023-08-08T08:30:19;98389.22;;;27.78;60.17
58295;BME280;45705;55.592;37.460;2023-08-08T08:32:45;98383.88;;;27.55;60.41
58295;BME280;45705;55.592;37.460;2023-08-08T08:35:11;98399.78;;;27.28;61.76
58295;BME280;45705;55.592;37.460;2023-08-08T08:37:38;98398.19;;;27.57;59.74
58295;BME280;45705;55.592;37.460;2023-08-08T08:40:04;98396.38;;;27.79;59.18
58295;BME280;45705;55.592;37.460;2023-08-08T08:42:32;98398.94;;;27.86;58.69
58295;BME280;45705;55.592;37.460;2023-08-08T08:44:59;98400.81;;;28.06;58.62
58295;BME280;45705;55.592;37.460;2023-08-08T08:47:32;98401.22;;;27.92;59.93
58295;BME280;45705;55.592;37.460;2023-08-08T08:50:00;98406.72;;;27.66;60.29
58295;BME280;45705;55.592;37.460;2023-08-08T08:52:32;98405.84;;;27.69;60.84
58295;BME280;45705;55.592;37.460;2023-08-08T08:54:59;98405.91;;;27.95;59.92
58295;BME280;45705;55.592;37.460;2023-08-08T08:57:25;98412.28;;;27.95;59.59
58295;BME280;45705;55.592;37.460;2023-08-08T08:59:52;98406.63;;;27.40;62.00
58295;BME280;45705;55.592;37.460;2023-08-08T09:02:18;98401.13;;;27.66;60.87
58295;BME280;45705;55.592;37.460;2023-08-08T09:04:45;98400.59;;;27.71;60.82
58295;BME280;45705;55.592;37.460;2023-08-08T09:07:12;98406.81;;;27.92;60.32
58295;BME280;45705;55.592;37.460;2023-08-08T09:09:38;98390.28;;;27.55;62.58
58295;BME280;45705;55.592;37.460;2023-08-08T09:12:04;98398.19;;;27.57;63.27
58295;BME280;45705;55.592;37.460;2023-08-08T09:14:31;98402.97;;;27.85;60.96
58295;BME280;45705;55.592;37.460;2023-08-08T09:16:57;98399.13;;;27.66;61.30
58295;BME280;45705;55.592;37.460;2023-08-08T09:19:24;98400.47;;;27.33;62.94
58295;BME280;45705;55.592;37.460;2023-08-08T09:21:51;98403.91;;;27.53;63.12
58295;BME280;45705;55.592;37.460;2023-08-08T09:24:18;98403.19;;;27.78;61.47
58295;BME280;45705;55.592;37.460;2023-08-08T09:26:44;98406.72;;;27.66;61.25
58295;BME280;45705;55.592;37.460;2023-08-08T09:29:13;98407.00;;;27.84;61.04
58295;BME280;45705;55.592;37.460;2023-08-08T09:31:40;98409.16;;;27.93;60.56
58295;BME280;45705;55.592;37.460;2023-08-08T09:34:06;98411.31;;;28.02;59.52
58295;BME280;45705;55.592;37.460;2023-08-08T09:36:33;98404.59;;;27.70;61.35
58295;BME280;45705;55.592;37.460;2023-08-08T09:39:01;98418.63;;;27.54;62.15
58295;BME280;45705;55.592;37.460;2023-08-08T09:41:28;98420.69;;;27.66;61.86
58295;BME280;45705;55.592;37.460;2023-08-08T09:43:54;98414.25;;;27.53;63.44
58295;BME280;45705;55.592;37.460;2023-08-08T09:46:21;98415.84;;;27.54;62.93
58295;BME280;45705;55.592;37.460;2023-08-08T09:48:48;98420.63;;;27.24;64.92
58295;BME280;45705;55.592;37.460;2023-08-08T09:51:14;98417.16;;;26.70;68.20
58295;BME280;45705;55.592;37.460;2023-08-08T09:53:41;98414.69;;;27.05;66.20
58295;BME280;45705;55.592;37.460;2023-08-08T09:56:08;98420.88;;;27.13;66.13
58295;BME280;45705;55.592;37.460;2023-08-08T09:58:34;98421.28;;;27.44;64.95
58295;BME280;45705;55.592;37.460;2023-08-08T10:01:00;98426.19;;;27.24;65.19
58295;BME280;45705;55.592;37.460;2023-08-08T10:03:27;98419.16;;;27.48;64.64
58295;BME280;45705;55.592;37.460;2023-08-08T10:05:54;98425.94;;;27.35;64.92
58295;BME280;45705;55.592;37.460;2023-08-08T10:08:22;98420.66;;;26.91;66.67
58295;BME280;45705;55.592;37.460;2023-08-08T10:10:50;98417.16;;;27.03;67.13
58295;BME280;45705;55.592;37.460;2023-08-08T10:13:23;98413.88;;;27.38;66.45
58295;BME280;45705;55.592;37.460;2023-08-08T10:15:50;98415.25;;;26.84;68.88
58295;BME280;45705;55.592;37.460;2023-08-08T10:18:17;98419.84;;;27.07;68.56
58295;BME280;45705;55.592;37.460;2023-08-08T10:20:44;98424.13;;;26.95;68.31
58295;BME280;45705;55.592;37.460;2023-08-08T10:23:17;98423.50;;;27.20;67.35
58295;BME280;45705;55.592;37.460;2023-08-08T10:25:51;98426.91;;;27.28;66.09
58295;BME280;45705;55.592;37.460;2023-08-08T10:28:20;98431.28;;;27.13;67.15
58295;BME280;45705;55.592;37.460;2023-08-08T10:30:58;98440.16;;;27.24;66.25
58295;BME280;45705;55.592;37.460;2023-08-08T10:33:27;98430.91;;;27.27;66.53
58295;BME280;45705;55.592;37.460;2023-08-08T10:36:04;98435.44;;;27.04;67.25
58295;BME280;45705;55.592;37.460;2023-08-08T10:38:41;98430.91;;;26.94;67.80
58295;BME280;45705;55.592;37.460;2023-08-08T10:41:17;98433.47;;;26.52;70.60
58295;BME280;45705;55.592;37.460;2023-08-08T10:43:51;98439.78;;;26.56;70.18
58295;BME280;45705;55.592;37.460;2023-08-08T10:46:31;98446.16;;;26.57;69.82
58295;BME280;45705;55.592;37.460;2023-08-08T10:48:59;98451.34;;;26.02;73.68
58295;BME280;45705;55.592;37.460;2023-08-08T10:51:43;98451.41;;;26.35;72.91
58295;BME280;45705;55.592;37.460;2023-08-08T10:56:51;98454.16;;;26.18;73.82
58295;BME280;45705;55.592;37.460;2023-08-08T10:59:37;98461.97;;;26.07;73.69
58295;BME280;45705;55.592;37.460;2023-08-08T11:02:04;98461.03;;;25.93;75.45
58295;BME280;45705;55.592;37.460;2023-08-08T11:04:30;98464.63;;;25.94;76.88
58295;BME280;45705;55.592;37.460;2023-08-08T11:06:58;98463.00;;;26.13;76.43
58295;BME280;45705;55.592;37.460;2023-08-08T11:09:24;98458.88;;;26.21;76.29
58295;BME280;45705;55.592;37.460;2023-08-08T11:11:52;98457.50;;;26.29;75.68
58295;BME280;45705;55.592;37.460;2023-08-08T11:14:22;98467.75;;;26.16;76.29
58295;BME280;45705;55.592;37.460;2023-08-08T11:16:50;98466.25;;;25.91;77.68
58295;BME280;45705;55.592;37.460;2023-08-08T11:19:16;98461.38;;;25.76;78.96
58295;BME280;45705;55.592;37.460;2023-08-08T11:21:46;98449.44;;;26.15;78.71
58295;BME280;45705;55.592;37.460;2023-08-08T11:24:12;98459.66;;;26.22;76.92
58295;BME280;45705;55.592;37.460;2023-08-08T11:26:42;98459.16;;;26.07;76.78
58295;BME280;45705;55.592;37.460;2023-08-08T11:29:10;98461.50;;;26.28;74.43
58295;BME280;45705;55.592;37.460;2023-08-08T11:31:36;98462.16;;;26.16;75.27
58295;BME280;45705;55.592;37.460;2023-08-08T11:34:04;98458.00;;;26.24;73.22
58295;BME280;45705;55.592;37.460;2023-08-08T11:36:34;98469.38;;;26.50;71.93
58295;BME280;45705;55.592;37.460;2023-08-08T11:39:04;98470.66;;;26.65;69.98
58295;BME280;45705;55.592;37.460;2023-08-08T11:41:35;98468.69;;;26.99;69.46
58295;BME280;45705;55.592;37.460;2023-08-08T11:44:03;98467.47;;;27.16;70.34
58295;BME280;45705;55.592;37.460;2023-08-08T11:46:30;98467.81;;;27.18;69.66
58295;BME280;45705;55.592;37.460;2023-08-08T11:49:05;98468.75;;;27.11;69.01
58295;BME280;45705;55.592;37.460;2023-08-08T11:51:33;98466.69;;;27.32;68.61
58295;BME280;45705;55.592;37.460;2023-08-08T11:54:01;98466.00;;;27.28;67.89
58295;BME280;45705;55.592;37.460;2023-08-08T11:56:27;98462.31;;;27.15;66.99
58295;BME280;45705;55.592;37.460;2023-08-08T11:58:55;98471.38;;;27.35;65.86
58295;BME280;45705;55.592;37.460;2023-08-08T12:01:26;98471.38;;;27.19;67.65
58295;BME280;45705;55.592;37.460;2023-08-08T12:03:53;98464.66;;;27.16;68.33
58295;BME280;45705;55.592;37.460;2023-08-08T12:06:20;98457.16;;;26.97;70.75
58295;BME280;45705;55.592;37.460;2023-08-08T12:08:47;98475.56;;;26.94;70.21
58295;BME280;45705;55.592;37.460;2023-08-08T12:11:15;98466.66;;;26.66;71.44
58295;BME280;45705;55.592;37.460;2023-08-08T12:13:42;98467.69;;;27.22;68.99
58295;BME280;45705;55.592;37.460;2023-08-08T12:16:09;98469.03;;;26.68;71.19
58295;BME280;45705;55.592;37.460;2023-08-08T12:18:39;98466.75;;;26.96;70.85
58295;BME280;45705;55.592;37.460;2023-08-08T12:21:06;98462.84;;;27.26;68.75
58295;BME280;45705;55.592;37.460;2023-08-08T12:23:34;98467.38;;;27.36;68.37
58295;BME280;45705;55.592;37.460;2023-08-08T12:26:03;98467.69;;;27.22;65.03
58295;BME280;45705;55.592;37.460;2023-08-08T12:28:29;98470.91;;;27.53;63.50
58295;BME280;45705;55.592;37.460;2023-08-08T12:30:55;98466.94;;;27.67;61.01
58295;BME280;45705;55.592;37.460;2023-08-08T12:33:20;98467.97;;;27.73;62.55
58295;BME280;45705;55.592;37.460;2023-08-08T12:35:47;98471.50;;;27.61;62.16
58295;BME280;45705;55.592;37.460;2023-08-08T12:38:13;98464.91;;;27.38;63.37
58295;BME280;45705;55.592;37.460;2023-08-08T12:40:40;98468.47;;;27.84;62.20
58295;BME280;45705;55.592;37.460;2023-08-08T12:43:06;98467.78;;;27.80;62.17
58295;BME280;45705;55.592;37.460;2023-08-08T12:45:32;98466.19;;;27.79;60.88
58295;BME280;45705;55.592;37.460;2023-08-08T12:47:58;98470.59;;;27.64;60.81
58295;BME280;45705;55.592;37.460;2023-08-08T12:50:24;98462.78;;;27.59;61.09
58295;BME280;45705;55.592;37.460;2023-08-08T12:52:50;98463.00;;;27.02;65.05
58295;BME280;45705;55.592;37.460;2023-08-08T12:55:16;98468.16;;;27.04;65.59